Brooks, West Virginia
Current Conditions -  °F | °C
As of 1:09 PM on Tuesday 21 Oct 2014 (Local Time) from KBKW Reporting Station
Overcast Overcast  
Wind Chill: 52°   Ceiling: 5500
Heat Index: 52°   Visibility: 10mi
Dew Point: 44°   Wind: 14mph
Humidity: 74%   Direction: 300°WNW
Pressure: 29.94"   Gusts: 22mph
Location:  37.6035°N, 80.8542°W
Report Text: KBKW 211709Z AUTO 30012G19KT 10SM FEW016 SCT025 OVC055 11/07 A2994 RMK AO2 T01110067 TSNO
Loading
Personal Weather Stations






























Interactive Weather Map
Tropical Storm Tracking
New forecast layout! Learn more

10-Day Weather Forecast

Advertisements
Track Severe Weather on mobile